createdAt,value
2023-03-21T00:55:34.032Z,67.95
2023-03-21T00:58:03.034Z,67.98
2023-03-21T01:00:37.278Z,68.10
2023-03-21T01:03:23.327Z,68.10
2023-03-21T01:06:05.098Z,68.25
2023-03-21T01:08:57.801Z,68.15
2023-03-21T01:11:28.245Z,68.24
2023-03-21T01:14:14.822Z,68.14
2023-03-21T01:16:46.026Z,68.48
2023-03-21T01:19:37.966Z,68.39
2023-03-21T01:22:09.682Z,68.55
2023-03-21T01:24:50.237Z,68.51
2023-03-21T01:27:22.130Z,68.55
2023-03-21T01:29:49.312Z,68.38
2023-03-21T01:32:20.905Z,68.49
2023-03-21T01:34:47.633Z,68.97
2023-03-21T01:37:14.826Z,68.92
2023-03-21T01:39:47.953Z,68.99
2023-03-21T01:42:18.196Z,69.38
2023-03-21T01:45:29.783Z,69.76
2023-03-21T01:47:56.834Z,69.86
2023-03-21T01:50:37.074Z,70.03
2023-03-21T01:53:29.990Z,69.95
2023-03-21T01:56:11.171Z,69.60
2023-03-21T01:58:55.356Z,70.12
2023-03-21T02:02:01.767Z,70.14
2023-03-21T02:04:31.368Z,70.17
2023-03-21T02:07:25.772Z,70.32
2023-03-21T02:10:01.588Z,70.11
2023-03-21T02:12:34.767Z,69.65
2023-03-21T02:15:07.582Z,69.84
2023-03-21T02:18:36.867Z,69.63
2023-03-21T02:22:02.447Z,69.71
2023-03-21T02:25:21.209Z,69.55
2023-03-21T02:28:19.645Z,69.87
2023-03-21T02:30:56.185Z,69.47
2023-03-21T02:33:36.003Z,70.09
2023-03-21T02:36:22.470Z,70.24
2023-03-21T02:38:52.687Z,70.14
2023-03-21T02:41:25.382Z,70.04
2023-03-21T02:44:01.328Z,69.90
2023-03-21T02:46:51.092Z,69.87
2023-03-21T02:49:40.209Z,69.89
2023-03-21T02:52:18.811Z,69.86
2023-03-21T02:54:58.348Z,70.05
2023-03-21T02:57:42.183Z,70.04
2023-03-21T03:00:19.181Z,70.14
2023-03-21T03:03:08.344Z,70.29
2023-03-21T03:05:51.645Z,70.51
2023-03-21T03:08:41.323Z,70.53
2023-03-21T03:11:37.500Z,70.63
2023-03-21T03:14:35.760Z,70.49
2023-03-21T03:17:08.231Z,70.49
2023-03-21T03:19:55.072Z,70.55
2023-03-21T03:22:39.879Z,70.46
2023-03-21T03:25:23.131Z,70.67
2023-03-21T03:28:01.783Z,70.62
2023-03-21T03:30:48.674Z,70.36
2023-03-21T03:33:27.389Z,70.55
2023-03-21T03:36:05.102Z,70.37
2023-03-21T03:38:39.382Z,70.61
2023-03-21T03:41:14.794Z,70.92
2023-03-21T03:43:54.034Z,70.37
2023-03-21T03:46:33.665Z,70.58
2023-03-21T03:49:18.893Z,70.58
2023-03-21T03:52:01.691Z,70.61
2023-03-21T03:54:40.608Z,70.46
2023-03-21T03:57:08.845Z,70.13
2023-03-21T03:59:41.594Z,70.27
2023-03-21T04:02:33.089Z,70.01
2023-03-21T04:05:04.365Z,70.00
2023-03-21T04:07:31.828Z,69.96
2023-03-21T04:10:07.165Z,70.07
2023-03-21T04:12:42.562Z,69.77
2023-03-21T04:15:22.199Z,70.00
2023-03-21T04:17:56.673Z,69.83
2023-03-21T04:20:43.335Z,69.71
2023-03-21T04:23:13.371Z,69.75
2023-03-21T04:25:55.792Z,69.71
2023-03-21T04:28:26.416Z,70.10
2023-03-21T04:31:11.113Z,69.99
2023-03-21T04:33:55.987Z,70.00
2023-03-21T04:36:28.813Z,69.79
2023-03-21T04:39:01.669Z,69.92
2023-03-21T04:41:29.986Z,69.75
2023-03-21T04:43:57.267Z,69.67
2023-03-21T04:46:28.837Z,69.58
2023-03-21T04:49:03.454Z,70.09
2023-03-21T04:51:32.940Z,70.24
2023-03-21T04:54:02.622Z,70.46
2023-03-21T04:56:36.401Z,70.50
2023-03-21T04:59:09.860Z,70.54
2023-03-21T05:01:41.318Z,70.64
2023-03-21T05:04:16.769Z,70.87
2023-03-21T05:06:50.547Z,70.80
2023-03-21T05:09:17.288Z,70.78
2023-03-21T05:11:49.303Z,70.69
2023-03-21T05:14:29.564Z,70.44
2023-03-21T05:17:05.275Z,70.42
2023-03-21T05:19:40.765Z,70.42
2023-03-21T05:22:10.602Z,70.45
2023-03-21T05:24:42.522Z,70.56
2023-03-21T05:27:34.245Z,70.39
2023-03-21T05:30:08.439Z,70.80
2023-03-21T05:35:12.011Z,71.10
2023-03-21T05:37:41.583Z,71.10
2023-03-21T05:40:11.643Z,71.09
2023-03-21T05:42:44.901Z,70.98
2023-03-21T05:45:17.128Z,71.28
2023-03-21T05:47:43.938Z,71.21
2023-03-21T05:50:14.300Z,71.34
2023-03-21T05:52:44.641Z,71.47
2023-03-21T05:55:14.067Z,71.63
2023-03-21T05:57:47.670Z,71.84
2023-03-21T06:00:22.251Z,71.72
2023-03-21T06:03:11.601Z,72.12
2023-03-21T06:05:55.097Z,71.96
2023-03-21T06:08:25.951Z,71.74
2023-03-21T06:10:55.708Z,70.66
2023-03-21T06:13:22.904Z,69.77
2023-03-21T06:15:52.110Z,69.92
2023-03-21T06:18:26.005Z,70.16
2023-03-21T06:21:06.375Z,70.32
2023-03-21T06:23:37.493Z,70.13
2023-03-21T06:26:14.576Z,70.03
2023-03-21T06:28:47.242Z,69.90
2023-03-21T06:31:17.385Z,70.04
2023-03-21T06:33:46.630Z,70.00
2023-03-21T06:36:16.311Z,69.89
2023-03-21T06:38:47.040Z,69.83
2023-03-21T06:41:18.639Z,69.59
2023-03-21T06:43:55.503Z,69.59
2023-03-21T06:46:24.820Z,69.56
2023-03-21T06:48:51.736Z,68.91
2023-03-21T06:51:20.960Z,69.04
2023-03-21T06:54:05.750Z,68.77
2023-03-21T06:56:55.070Z,68.87
2023-03-21T06:59:26.819Z,68.80
2023-03-21T07:02:10.863Z,68.72
2023-03-21T07:04:47.897Z,68.89
2023-03-21T07:07:27.310Z,68.53
2023-03-21T07:10:01.475Z,68.24
2023-03-21T07:12:34.305Z,67.94
2023-03-21T07:15:14.147Z,67.50
2023-03-21T07:17:49.867Z,67.23
2023-03-21T07:20:16.876Z,67.63
2023-03-21T07:22:46.463Z,67.41
2023-03-21T07:25:20.144Z,67.47
2023-03-21T07:27:50.806Z,67.28
2023-03-21T07:30:22.286Z,67.58
2023-03-21T07:32:49.026Z,67.23
2023-03-21T07:35:17.865Z,67.36
2023-03-21T07:37:44.609Z,67.34
2023-03-21T07:40:17.276Z,67.35
2023-03-21T07:42:51.954Z,67.33
2023-03-21T07:45:31.251Z,67.38
2023-03-21T07:48:02.934Z,67.24
2023-03-21T07:50:38.578Z,67.33
2023-03-21T07:53:08.405Z,67.32
2023-03-21T07:55:42.491Z,67.33
2023-03-21T07:58:09.176Z,67.08
2023-03-21T08:00:40.360Z,67.83
2023-03-21T08:03:07.104Z,67.82
2023-03-21T08:05:38.408Z,67.44
2023-03-21T08:08:08.199Z,68.16
2023-03-21T08:10:41.067Z,68.05
2023-03-21T08:13:10.060Z,67.75
2023-03-21T08:15:37.830Z,69.19
2023-03-21T08:18:12.536Z,68.90
2023-03-21T08:20:42.229Z,68.60
2023-03-21T08:23:11.393Z,68.82
2023-03-21T08:25:41.073Z,68.38
2023-03-21T08:28:14.659Z,67.88
2023-03-21T08:30:46.158Z,67.42
2023-03-21T08:33:16.156Z,67.01
2023-03-21T08:35:45.957Z,66.34
2023-03-21T08:38:22.612Z,66.88
2023-03-21T08:40:51.789Z,66.89
2023-03-21T08:43:18.510Z,65.87
2023-03-21T08:45:49.976Z,65.40
2023-03-21T08:48:22.605Z,65.73
2023-03-21T08:50:51.584Z,64.98
2023-03-21T08:53:23.282Z,65.64
2023-03-21T08:55:55.474Z,66.81
2023-03-21T08:58:24.540Z,64.85
2023-03-21T09:00:56.545Z,64.21
2023-03-21T09:03:27.997Z,64.54
2023-03-21T09:06:00.817Z,65.34
2023-03-21T09:08:34.567Z,64.59
2023-03-21T09:11:03.760Z,63.40
2023-03-21T09:13:32.722Z,63.16
2023-03-21T09:16:01.989Z,63.17
2023-03-21T09:18:55.870Z,62.59
2023-03-21T09:21:30.962Z,62.11
2023-03-21T09:24:02.991Z,63.68
2023-03-21T09:26:34.976Z,63.44
2023-03-21T09:29:06.030Z,63.24
2023-03-21T09:31:43.960Z,62.70
2023-03-21T09:34:15.864Z,62.47
2023-03-21T09:36:48.443Z,62.36
2023-03-21T09:39:17.808Z,62.57
2023-03-21T09:42:33.947Z,60.95
2023-03-21T09:45:05.004Z,62.63
2023-03-21T09:47:53.470Z,61.38
2023-03-21T09:50:32.030Z,60.80
2023-03-21T09:53:05.358Z,61.49
2023-03-21T09:55:42.698Z,61.16
2023-03-21T09:58:26.272Z,62.19
2023-03-21T10:01:22.500Z,61.52
2023-03-21T10:03:55.604Z,61.86
2023-03-21T10:06:30.606Z,61.74
2023-03-21T10:09:08.674Z,61.36
2023-03-21T10:11:49.470Z,61.04
2023-03-21T10:15:05.500Z,61.22
2023-03-21T10:17:47.236Z,60.81
2023-03-21T10:20:14.273Z,60.27
2023-03-21T10:22:44.069Z,59.77
2023-03-21T10:25:32.094Z,60.23
2023-03-21T10:28:02.647Z,60.66
2023-03-21T10:30:36.910Z,60.28
2023-03-21T10:33:11.534Z,60.65
2023-03-21T10:35:46.620Z,60.38
2023-03-21T10:38:19.912Z,59.99
2023-03-21T10:40:52.134Z,59.75
2023-03-21T10:43:27.833Z,58.76
2023-03-21T10:45:57.927Z,58.67
2023-03-21T10:48:27.134Z,58.83
2023-03-21T10:50:59.688Z,58.33
2023-03-21T10:53:53.251Z,58.79
2023-03-21T10:56:27.792Z,58.48
2023-03-21T10:59:03.863Z,58.21
2023-03-21T11:01:43.136Z,58.05
2023-03-21T11:04:23.381Z,57.70
2023-03-21T11:07:07.107Z,57.74
2023-03-21T11:10:19.987Z,55.60
2023-03-21T11:12:59.752Z,57.51
2023-03-21T11:15:35.483Z,56.06
2023-03-21T11:18:22.866Z,56.62
2023-03-21T11:20:51.277Z,56.99
2023-03-21T11:23:21.750Z,57.46
2023-03-21T11:25:53.091Z,56.32
2023-03-21T11:28:23.447Z,56.09
2023-03-21T11:31:01.169Z,54.88
2023-03-21T11:33:36.604Z,55.05
2023-03-21T11:36:27.465Z,56.10
2023-03-21T11:39:02.709Z,54.81
2023-03-21T11:41:36.618Z,55.74
2023-03-21T11:44:23.479Z,54.96
2023-03-21T11:46:54.287Z,54.78
2023-03-21T11:49:24.479Z,54.01
2023-03-21T11:52:29.448Z,53.61
2023-03-21T11:55:31.612Z,53.37
2023-03-21T11:58:21.990Z,53.23
2023-03-21T12:00:59.738Z,52.38
2023-03-21T12:04:08.560Z,50.85
2023-03-21T12:06:46.900Z,51.12
2023-03-21T12:09:25.290Z,51.11
2023-03-21T12:12:11.877Z,50.17
2023-03-21T12:15:10.972Z,49.91
2023-03-21T12:17:54.592Z,50.14
2023-03-21T12:20:39.777Z,49.80
2023-03-21T12:23:16.016Z,50.52
2023-03-21T12:25:56.796Z,48.37
2023-03-21T12:28:56.598Z,49.21
2023-03-21T12:31:56.526Z,47.31
2023-03-21T12:34:50.992Z,46.57
2023-03-21T12:37:42.466Z,46.51
2023-03-21T12:40:40.673Z,48.07
2023-03-21T12:43:25.002Z,48.13
2023-03-21T12:46:33.871Z,45.41
2023-03-21T12:49:10.504Z,46.39
2023-03-21T12:51:47.563Z,47.50
2023-03-21T12:54:39.244Z,45.36
2023-03-21T12:57:18.039Z,46.64
2023-03-21T12:59:58.305Z,47.18
2023-03-21T13:03:03.757Z,44.94
2023-03-21T13:05:41.172Z,47.32
2023-03-21T13:08:21.078Z,46.90
2023-03-21T13:10:48.013Z,47.51
2023-03-21T13:13:45.027Z,45.79
2023-03-21T13:16:22.997Z,45.65
2023-03-21T13:19:14.012Z,46.13
2023-03-21T13:21:55.852Z,44.44
2023-03-21T13:24:43.956Z,45.38
2023-03-21T13:27:33.994Z,44.18
2023-03-21T13:30:20.667Z,42.16
2023-03-21T13:32:51.715Z,44.65
2023-03-21T13:35:38.193Z,44.26
2023-03-21T13:38:16.602Z,43.95
2023-03-21T13:40:47.763Z,44.91
2023-03-21T13:43:43.788Z,43.77
2023-03-21T13:46:52.279Z,45.75
2023-03-21T13:49:34.506Z,44.69
2023-03-21T13:52:27.878Z,43.95
2023-03-21T13:54:58.872Z,44.97
2023-03-21T13:57:30.550Z,45.19
2023-03-21T14:00:19.050Z,44.91
2023-03-21T14:03:08.332Z,45.00
2023-03-21T14:05:38.992Z,45.74
2023-03-21T14:08:15.622Z,46.38
2023-03-21T14:10:58.008Z,45.12
2023-03-21T14:13:26.706Z,45.30
2023-03-21T14:16:12.871Z,45.52
2023-03-21T14:18:54.181Z,46.39
2023-03-21T14:21:29.727Z,46.45
2023-03-21T14:24:13.729Z,46.48
2023-03-21T14:26:54.369Z,46.47
2023-03-21T14:29:31.633Z,45.38
2023-03-21T14:32:04.433Z,45.83
2023-03-21T14:34:35.820Z,45.79
2023-03-21T14:37:15.692Z,45.70
2023-03-21T14:39:42.456Z,46.25
2023-03-21T14:42:17.590Z,45.14
2023-03-21T14:45:00.511Z,43.58
2023-03-21T14:47:32.181Z,44.96
2023-03-21T14:50:03.639Z,44.66
2023-03-21T14:52:34.264Z,45.07
2023-03-21T14:55:02.594Z,45.35
2023-03-21T14:57:34.043Z,45.94
2023-03-21T15:00:17.250Z,45.38
2023-03-21T15:02:46.339Z,45.31
2023-03-21T15:05:39.641Z,44.56
2023-03-21T15:08:14.883Z,45.32
2023-03-21T15:11:08.103Z,44.64
2023-03-21T15:13:54.998Z,44.83
2023-03-21T15:16:24.868Z,45.61
2023-03-21T15:18:57.031Z,45.59
2023-03-21T15:21:30.335Z,44.98
2023-03-21T15:24:13.701Z,45.27
2023-03-21T15:26:45.063Z,45.33
2023-03-21T15:29:16.333Z,45.59
2023-03-21T15:31:47.673Z,45.70
2023-03-21T15:34:30.791Z,45.51
2023-03-21T15:37:06.379Z,46.42
2023-03-21T15:39:36.636Z,46.86
2023-03-21T15:42:26.251Z,46.44
2023-03-21T15:44:56.521Z,47.19
2023-03-21T15:47:51.947Z,46.96
2023-03-21T15:50:24.390Z,46.89
2023-03-21T15:52:54.831Z,47.05
2023-03-21T15:55:28.352Z,47.35
2023-03-21T15:58:04.475Z,47.49
2023-03-21T16:00:44.038Z,47.51
2023-03-21T16:03:19.289Z,47.75
2023-03-21T16:06:14.392Z,47.67
2023-03-21T16:08:47.406Z,47.75
2023-03-21T16:11:18.585Z,48.05
2023-03-21T16:13:51.734Z,48.13
2023-03-21T16:16:24.819Z,48.51
2023-03-21T16:18:55.278Z,48.42
2023-03-21T16:21:30.717Z,48.59
2023-03-21T16:24:02.297Z,48.46
2023-03-21T16:26:32.227Z,48.47
2023-03-21T16:29:07.214Z,48.61
2023-03-21T16:31:37.286Z,48.56
2023-03-21T16:34:11.010Z,48.26
2023-03-21T16:36:44.086Z,48.34
2023-03-21T16:39:29.083Z,48.26
2023-03-21T16:42:03.126Z,48.15
2023-03-21T16:44:35.820Z,47.95
2023-03-21T16:47:02.613Z,48.20
2023-03-21T16:49:33.815Z,48.40
2023-03-21T16:52:01.481Z,48.28
2023-03-21T16:54:30.541Z,48.13
2023-03-21T16:57:04.610Z,48.47
2023-03-21T16:59:39.207Z,48.39
2023-03-21T17:02:16.453Z,48.20
2023-03-21T17:04:46.367Z,48.55
2023-03-21T17:07:15.902Z,48.27
2023-03-21T17:09:46.906Z,48.69
2023-03-21T17:12:17.864Z,48.56
2023-03-21T17:14:52.469Z,48.36
2023-03-21T17:17:21.790Z,48.87
2023-03-21T17:19:53.055Z,49.02
2023-03-21T17:22:24.594Z,49.08
2023-03-21T17:24:51.252Z,49.14
2023-03-21T17:27:18.476Z,49.20
2023-03-21T17:29:49.726Z,49.23
2023-03-21T17:32:21.360Z,49.09
2023-03-21T17:34:53.352Z,49.18
2023-03-21T17:37:26.178Z,49.53
2023-03-21T17:39:53.331Z,49.60
2023-03-21T17:42:25.334Z,49.51
2023-03-21T17:44:54.318Z,49.98
2023-03-21T17:47:25.665Z,49.95
2023-03-21T17:49:56.819Z,49.81
2023-03-21T17:52:30.559Z,49.83
2023-03-21T17:54:59.540Z,50.20
2023-03-21T17:57:28.335Z,50.27
2023-03-21T18:00:00.055Z,50.17
2023-03-21T18:02:31.970Z,50.57
2023-03-21T18:05:03.526Z,50.51
2023-03-21T18:08:05.912Z,50.77
2023-03-21T18:10:28.519Z,51.17
2023-03-21T18:12:58.440Z,52.11
2023-03-21T18:15:30.042Z,51.69
2023-03-21T18:17:59.785Z,51.67
2023-03-21T18:20:49.962Z,52.61
2023-03-21T18:23:15.542Z,52.48
2023-03-21T18:25:42.334Z,52.40
2023-03-21T18:28:12.763Z,52.15
2023-03-21T18:31:06.932Z,52.17
2023-03-21T18:33:31.106Z,52.06
2023-03-21T18:35:59.317Z,52.15
2023-03-21T18:38:27.862Z,52.86
2023-03-21T18:40:57.919Z,52.67
2023-03-21T18:46:16.476Z,52.78
2023-03-21T18:48:43.523Z,52.95
2023-03-21T18:51:12.726Z,53.01
2023-03-21T18:53:39.707Z,53.02
2023-03-21T18:56:10.669Z,53.01
2023-03-21T18:58:38.702Z,53.22
2023-03-21T19:01:05.675Z,53.17
2023-03-21T19:03:37.249Z,53.28
2023-03-21T19:06:05.557Z,53.68
2023-03-21T19:08:38.726Z,53.43
2023-03-21T19:11:09.250Z,53.83
2023-03-21T19:13:41.026Z,53.99
2023-03-21T19:16:15.117Z,54.12
2023-03-21T19:18:54.880Z,54.17
2023-03-21T19:21:28.071Z,54.28
2023-03-21T19:26:46.438Z,54.33
2023-03-21T19:29:14.984Z,54.70
2023-03-21T19:31:45.246Z,55.36
2023-03-21T19:34:14.359Z,55.25
2023-03-21T19:36:45.863Z,55.47
2023-03-21T19:39:19.640Z,55.60
2023-03-21T19:41:48.804Z,55.95
2023-03-21T19:44:22.055Z,56.64
2023-03-21T19:46:51.138Z,56.20
2023-03-21T19:49:31.713Z,56.25
2023-03-21T19:52:13.529Z,55.96
2023-03-21T19:54:40.631Z,56.19
2023-03-21T19:57:09.740Z,55.99
2023-03-21T19:59:36.642Z,56.18
2023-03-21T20:02:25.636Z,56.26
2023-03-21T20:04:57.967Z,56.35
2023-03-21T20:07:24.868Z,56.65
2023-03-21T20:09:54.236Z,56.70
2023-03-21T20:12:23.182Z,56.95
2023-03-21T20:14:58.033Z,56.56
2023-03-21T20:17:30.944Z,56.74
2023-03-21T20:20:00.664Z,56.72
2023-03-21T20:22:58.870Z,56.85
2023-03-21T20:25:17.467Z,57.31
2023-03-21T20:27:44.948Z,57.69
2023-03-21T20:30:15.017Z,57.57
2023-03-21T20:32:44.300Z,57.54
2023-03-21T20:35:21.264Z,57.54
2023-03-21T20:37:59.888Z,57.57
2023-03-21T20:40:26.737Z,57.90
2023-03-21T20:42:56.455Z,58.21
2023-03-21T20:45:23.185Z,58.11
2023-03-21T20:47:57.062Z,58.43
2023-03-21T20:50:26.065Z,58.30
2023-03-21T20:53:06.375Z,58.45
2023-03-21T20:55:34.290Z,58.23
2023-03-21T20:58:02.224Z,58.13
2023-03-21T21:00:29.608Z,58.01
2023-03-21T21:03:01.934Z,58.23
2023-03-21T21:05:34.897Z,58.55
2023-03-21T21:08:04.522Z,58.59
2023-03-21T21:10:34.386Z,58.27
2023-03-21T21:13:01.508Z,58.55
2023-03-21T21:15:28.336Z,58.57
2023-03-21T21:18:06.596Z,58.68
2023-03-21T21:20:35.386Z,58.85
2023-03-21T21:23:02.257Z,58.89
2023-03-21T21:25:32.871Z,59.17
2023-03-21T21:28:02.430Z,59.43
2023-03-21T21:30:30.288Z,59.46
2023-03-21T21:32:59.733Z,59.25
2023-03-21T21:35:27.021Z,59.27
2023-03-21T21:37:53.720Z,59.43
2023-03-21T21:40:23.554Z,59.60
2023-03-21T21:42:50.956Z,59.89
2023-03-21T21:45:22.389Z,59.58
2023-03-21T21:47:51.594Z,59.64
2023-03-21T21:50:22.560Z,59.63
2023-03-21T21:52:54.385Z,59.57
2023-03-21T21:55:23.492Z,59.60
2023-03-21T21:57:50.757Z,59.93
2023-03-21T22:00:22.539Z,59.96
2023-03-21T22:02:49.407Z,60.08
2023-03-21T22:05:16.523Z,59.89
2023-03-21T22:07:45.485Z,60.09
2023-03-21T22:10:15.560Z,60.20
2023-03-21T22:12:44.889Z,60.29
2023-03-21T22:15:12.489Z,60.54
2023-03-21T22:17:41.853Z,60.49
2023-03-21T22:20:15.114Z,60.67
2023-03-21T22:22:42.444Z,60.65
2023-03-21T22:25:12.032Z,60.87
2023-03-21T22:27:41.209Z,60.97
2023-03-21T22:30:13.849Z,61.33
2023-03-21T22:32:43.860Z,61.18
2023-03-21T22:35:11.628Z,61.25
2023-03-21T22:37:42.541Z,61.22
2023-03-21T22:40:13.216Z,61.33
2023-03-21T22:42:41.294Z,61.30
2023-03-21T22:45:13.415Z,61.45
2023-03-21T22:47:40.793Z,61.68
2023-03-21T22:50:13.245Z,61.63
2023-03-21T22:52:39.912Z,61.60
2023-03-21T22:55:10.109Z,61.75
2023-03-21T22:57:39.156Z,61.73
2023-03-21T23:00:13.291Z,61.98
2023-03-21T23:02:42.525Z,61.89
2023-03-21T23:05:10.136Z,61.91
2023-03-21T23:07:40.728Z,62.07
2023-03-21T23:10:08.967Z,62.20
2023-03-21T23:12:39.081Z,62.28
2023-03-21T23:15:07.825Z,62.41
2023-03-21T23:17:35.661Z,62.32
2023-03-21T23:20:04.655Z,62.64
2023-03-21T23:22:32.930Z,62.61
2023-03-21T23:25:00.139Z,62.68
2023-03-21T23:27:29.550Z,62.72
2023-03-21T23:29:58.587Z,63.00
2023-03-21T23:32:27.669Z,63.15
2023-03-21T23:35:01.642Z,63.21
2023-03-21T23:37:30.131Z,63.27
2023-03-21T23:39:59.841Z,63.56
2023-03-21T23:42:30.901Z,63.51
2023-03-21T23:44:57.852Z,63.74
2023-03-21T23:47:24.544Z,63.71
2023-03-21T23:49:53.470Z,63.85
2023-03-21T23:52:20.380Z,64.02
2023-03-21T23:54:47.083Z,63.91
2023-03-21T23:57:17.245Z,64.30
2023-03-21T23:59:46.877Z,64.29
